MAYO2: W. D. Mayo Lock And Dam (L&D 14)

Data processed at Mon Oct 16 2017 22:30


All information presented herein is the property of the government of the United States of America and may be revised or deleted at any time without prior notice.
Dissemination of this information without the expressed written consent of the Public Affairs Office, Tulsa District U.S. Army Corps of Engineers is strictly prohibited.
These data are gathered electronically and, as presented, have not undergone any form of quality control. These data are not guaranteed to be valid or correct.
Go to home page.
Go to station list.

Upstream stations:

Downstream station:
Previous Day
Next Day
Current Day
    
SHEF ID:       MAYO2     W. D. Mayo Lock And Dam (L&D 14)
STATION TYPE:  NAVIGATION LOCK
Normal Pool:  Bottom =   411.00, Top =   413.00

               PRECIP ELEVATION   STORAGE   TW-ELEV LOCK-ELEV    INFLOW   RELEASE  AIR-TEMP  WIND-DIRWIND-SPEED REL-HUMID SOLAR-RAD   VOLTAGE  BAT-LOAD
                   in        ft     ac-ft        ft        ft       cfs       cfs         F       deg       mph         %      W/m2      volt      volt
              Ccp-Rev   Ccp-Rev   Ccp-Rev   Ccp-Rev   Ccp-Rev  Regi-Rev  Regi-Rev   Ccp-Rev   Ccp-Rev   Ccp-Rev   Ccp-Rev   Ccp-Rev   Ccp-Rev   Ccp-Rev
(US/Central)
10/16 00:00      0.00    412.45     14895    392.18    392.37        52         0     50.41    245.80      0.70     79.43      0.00     13.60     13.44
10/16 01:00      0.00    412.44     14880    392.54    392.71         2         0     51.75    288.20      1.40     78.98      0.00     13.60     13.44
10/16 02:00      0.00    412.37     14768    392.53    392.69         0         0     53.28    314.90      3.70     74.90      0.00     13.60     13.44
10/16 03:00      0.00    412.40     14816    392.39    392.56         0         0     49.96    270.20      1.40     79.23      0.00     13.60     13.44
10/16 04:00      0.00    412.34     14721    392.45    392.63         0         0     48.31    249.30      1.20     82.94      0.00     13.59     13.44
10/16 05:00      0.00    412.25     14577    393.12    393.30         0         0     48.11    267.10      1.40     82.95      0.00     13.59     13.44
10/16 06:00      0.00    412.56     15070    392.93    393.09      2100         0     45.46    232.40      0.70     87.82      0.00     13.59     13.44
10/16 07:00      0.00    412.37     14768    392.06    392.23      2138         0     43.97    236.20      0.50     90.56      0.00     13.58     13.44
10/16 08:00      0.00    412.48     14943    392.08    392.28      2177      8397     43.03    228.90      1.00     92.57     11.20     13.58     13.44
10/16 09:00      0.00    412.84     15516    392.64    392.80      2177         0     48.43    229.30      0.50     87.69    151.30     13.59     13.44
10/16 10:00      0.00    412.50     14975    392.42    392.57      2715         0     56.59     71.70      1.30     68.79    330.90     13.59     13.44
10/16 11:00      0.00    412.50     14975    392.55    392.97       616         0     60.53     87.90      1.90     57.94    494.50     13.59     13.44
10/16 12:00      0.00    412.69     15277    392.94    393.24       577         0     62.96     96.90      3.30     45.52    616.60     13.59     13.44
10/16 13:00      0.00    412.76     15388    393.44    393.60       539         0     65.08     90.70      5.00     37.12    687.30     13.60     13.44
10/16 14:00      0.00    412.71     15309    393.05    393.23       539         0     66.83    102.50      5.00     35.42    692.30     13.60     13.44
10/16 15:00      0.00    412.73     15341    393.04    393.18         0         0     68.58     61.40      3.60     33.98    636.00     13.60     13.44
10/16 16:00      0.00    412.67     15245    393.11    393.29         0         0     70.16     97.40      3.20     33.05    522.90     13.61     13.44
10/16 17:00      0.00    412.62     15166    393.07    393.25         0         0     71.29    128.10      3.10     31.64    362.90     13.61     13.44
10/16 18:00      0.00    412.54     15039    392.99    393.17         0         0     70.70    137.70      3.50     33.42    177.30     13.61     13.44
10/16 19:00      0.00    412.54     15039    392.97    393.13         0         0     66.61    194.90      1.30     40.86     13.60     13.61     13.44
10/16 20:00      0.00    412.49     14959    392.96    393.14      -901      -901     59.67    250.50      0.20     54.65      0.00     13.61     13.44
10/16 21:00      0.00    412.46     14911    392.95    393.15      ----      ----     55.47    229.10      0.50     66.56      0.00     13.60     13.44
10/16 22:00      ----      ----      ----      ----      ----      ----      ----      ----      ----      ----      ----      ----      ----      ----
10/16 23:00      ----      ----      ----      ----      ----      ----      ----      ----      ----      ----      ----      ----      ----      ----